sensor_id;sensor_type;location;lat;lon;timestamp;P1;durP1;ratioP1;P2;durP2;ratioP2
19004;SDS011;9635;52.078;8.648;2024-03-29T00:02:26;4.97;;;0.80;;
19004;SDS011;9635;52.078;8.648;2024-03-29T00:07:27;5.70;;;1.42;;
19004;SDS011;9635;52.078;8.648;2024-03-29T00:12:28;4.55;;;0.63;;
19004;SDS011;9635;52.078;8.648;2024-03-29T00:17:28;4.68;;;0.60;;
19004;SDS011;9635;52.078;8.648;2024-03-29T00:22:29;2.28;;;0.73;;
19004;SDS011;9635;52.078;8.648;2024-03-29T00:27:30;5.70;;;0.90;;
19004;SDS011;9635;52.078;8.648;2024-03-29T00:32:31;5.05;;;0.80;;
19004;SDS011;9635;52.078;8.648;2024-03-29T00:37:32;2.65;;;0.70;;
19004;SDS011;9635;52.078;8.648;2024-03-29T00:42:32;2.63;;;0.52;;
19004;SDS011;9635;52.078;8.648;2024-03-29T00:47:33;4.47;;;0.98;;
19004;SDS011;9635;52.078;8.648;2024-03-29T00:52:34;2.33;;;0.70;;
19004;SDS011;9635;52.078;8.648;2024-03-29T00:57:35;4.38;;;0.68;;
19004;SDS011;9635;52.078;8.648;2024-03-29T01:02:35;3.42;;;0.90;;
19004;SDS011;9635;52.078;8.648;2024-03-29T01:07:36;2.83;;;0.77;;
19004;SDS011;9635;52.078;8.648;2024-03-29T01:12:37;3.05;;;0.63;;
19004;SDS011;9635;52.078;8.648;2024-03-29T01:22:40;1.75;;;0.57;;
19004;SDS011;9635;52.078;8.648;2024-03-29T01:27:40;5.55;;;0.82;;
19004;SDS011;9635;52.078;8.648;2024-03-29T01:32:41;1.85;;;0.57;;
19004;SDS011;9635;52.078;8.648;2024-03-29T01:37:42;2.72;;;0.45;;
19004;SDS011;9635;52.078;8.648;2024-03-29T01:42:43;6.05;;;0.80;;
19004;SDS011;9635;52.078;8.648;2024-03-29T01:47:43;1.38;;;0.40;;
19004;SDS011;9635;52.078;8.648;2024-03-29T01:52:44;4.45;;;0.73;;
19004;SDS011;9635;52.078;8.648;2024-03-29T01:57:46;3.53;;;0.93;;
19004;SDS011;9635;52.078;8.648;2024-03-29T02:02:47;4.22;;;1.05;;
19004;SDS011;9635;52.078;8.648;2024-03-29T02:07:48;4.53;;;1.02;;
19004;SDS011;9635;52.078;8.648;2024-03-29T02:12:48;4.50;;;1.08;;
19004;SDS011;9635;52.078;8.648;2024-03-29T02:17:49;1.75;;;0.80;;
19004;SDS011;9635;52.078;8.648;2024-03-29T02:22:58;4.18;;;0.80;;
19004;SDS011;9635;52.078;8.648;2024-03-29T02:28:02;3.33;;;0.73;;
19004;SDS011;9635;52.078;8.648;2024-03-29T02:33:04;3.53;;;0.85;;
19004;SDS011;9635;52.078;8.648;2024-03-29T02:38:05;3.47;;;0.60;;
19004;SDS011;9635;52.078;8.648;2024-03-29T02:43:05;1.42;;;0.90;;
19004;SDS011;9635;52.078;8.648;2024-03-29T02:48:06;8.07;;;1.48;;
19004;SDS011;9635;52.078;8.648;2024-03-29T02:53:07;5.00;;;0.95;;
19004;SDS011;9635;52.078;8.648;2024-03-29T02:58:08;3.72;;;0.80;;
19004;SDS011;9635;52.078;8.648;2024-03-29T03:03:08;4.75;;;0.93;;
19004;SDS011;9635;52.078;8.648;2024-03-29T03:08:09;2.72;;;0.73;;
19004;SDS011;9635;52.078;8.648;2024-03-29T03:13:28;4.22;;;1.00;;
19004;SDS011;9635;52.078;8.648;2024-03-29T03:18:29;6.68;;;0.93;;
19004;SDS011;9635;52.078;8.648;2024-03-29T03:23:30;3.65;;;0.60;;
19004;SDS011;9635;52.078;8.648;2024-03-29T03:28:31;1.98;;;0.93;;
19004;SDS011;9635;52.078;8.648;2024-03-29T03:33:31;1.63;;;0.57;;
19004;SDS011;9635;52.078;8.648;2024-03-29T03:38:32;1.80;;;0.70;;
19004;SDS011;9635;52.078;8.648;2024-03-29T03:43:35;2.70;;;0.85;;
19004;SDS011;9635;52.078;8.648;2024-03-29T03:48:35;2.70;;;1.13;;
19004;SDS011;9635;52.078;8.648;2024-03-29T03:53:36;1.40;;;0.70;;
19004;SDS011;9635;52.078;8.648;2024-03-29T03:58:37;3.35;;;0.70;;
19004;SDS011;9635;52.078;8.648;2024-03-29T04:03:38;2.85;;;0.77;;
19004;SDS011;9635;52.078;8.648;2024-03-29T04:08:40;4.65;;;0.73;;
19004;SDS011;9635;52.078;8.648;2024-03-29T04:13:42;2.35;;;1.00;;
19004;SDS011;9635;52.078;8.648;2024-03-29T04:18:43;0.68;;;0.55;;
19004;SDS011;9635;52.078;8.648;2024-03-29T04:23:44;3.15;;;0.60;;
19004;SDS011;9635;52.078;8.648;2024-03-29T04:28:44;2.28;;;0.32;;
19004;SDS011;9635;52.078;8.648;2024-03-29T04:33:45;2.38;;;0.65;;
19004;SDS011;9635;52.078;8.648;2024-03-29T04:38:46;3.22;;;0.60;;
19004;SDS011;9635;52.078;8.648;2024-03-29T04:43:47;1.88;;;0.40;;
19004;SDS011;9635;52.078;8.648;2024-03-29T04:48:49;4.30;;;0.70;;
19004;SDS011;9635;52.078;8.648;2024-03-29T04:53:50;1.85;;;0.70;;
19004;SDS011;9635;52.078;8.648;2024-03-29T04:58:51;2.72;;;0.60;;
19004;SDS011;9635;52.078;8.648;2024-03-29T05:03:52;1.40;;;0.65;;
19004;SDS011;9635;52.078;8.648;2024-03-29T05:08:53;3.17;;;0.95;;
19004;SDS011;9635;52.078;8.648;2024-03-29T05:13:54;3.65;;;1.33;;
19004;SDS011;9635;52.078;8.648;2024-03-29T05:18:54;4.82;;;1.00;;
19004;SDS011;9635;52.078;8.648;2024-03-29T05:23:55;2.38;;;0.85;;
19004;SDS011;9635;52.078;8.648;2024-03-29T05:28:56;2.88;;;0.50;;
19004;SDS011;9635;52.078;8.648;2024-03-29T05:33:58;5.85;;;1.17;;
19004;SDS011;9635;52.078;8.648;2024-03-29T05:39:00;3.63;;;0.75;;
19004;SDS011;9635;52.078;8.648;2024-03-29T05:44:01;6.63;;;0.95;;
19004;SDS011;9635;52.078;8.648;2024-03-29T05:49:04;2.92;;;1.10;;
19004;SDS011;9635;52.078;8.648;2024-03-29T05:54:05;2.08;;;0.77;;
19004;SDS011;9635;52.078;8.648;2024-03-29T05:59:05;4.55;;;0.70;;
19004;SDS011;9635;52.078;8.648;2024-03-29T06:04:06;3.28;;;0.93;;
19004;SDS011;9635;52.078;8.648;2024-03-29T06:09:15;3.60;;;1.10;;
19004;SDS011;9635;52.078;8.648;2024-03-29T06:14:16;7.80;;;1.00;;
19004;SDS011;9635;52.078;8.648;2024-03-29T06:19:35;5.75;;;0.88;;
19004;SDS011;9635;52.078;8.648;2024-03-29T06:24:36;2.80;;;0.70;;
19004;SDS011;9635;52.078;8.648;2024-03-29T06:29:39;4.72;;;1.00;;
19004;SDS011;9635;52.078;8.648;2024-03-29T06:34:40;4.88;;;1.45;;
19004;SDS011;9635;52.078;8.648;2024-03-29T06:39:40;5.00;;;1.33;;
19004;SDS011;9635;52.078;8.648;2024-03-29T06:44:43;3.75;;;1.63;;
19004;SDS011;9635;52.078;8.648;2024-03-29T06:49:44;7.63;;;3.05;;
19004;SDS011;9635;52.078;8.648;2024-03-29T06:54:46;7.60;;;2.13;;
19004;SDS011;9635;52.078;8.648;2024-03-29T06:59:46;4.78;;;2.75;;
19004;SDS011;9635;52.078;8.648;2024-03-29T07:04:47;8.60;;;2.67;;
19004;SDS011;9635;52.078;8.648;2024-03-29T07:09:48;7.82;;;2.83;;
19004;SDS011;9635;52.078;8.648;2024-03-29T07:14:49;7.38;;;2.63;;
19004;SDS011;9635;52.078;8.648;2024-03-29T07:19:49;4.93;;;2.55;;
19004;SDS011;9635;52.078;8.648;2024-03-29T07:24:50;5.07;;;2.00;;
19004;SDS011;9635;52.078;8.648;2024-03-29T07:29:51;5.28;;;2.03;;
19004;SDS011;9635;52.078;8.648;2024-03-29T07:34:52;4.97;;;1.83;;
19004;SDS011;9635;52.078;8.648;2024-03-29T07:39:52;6.28;;;1.73;;
19004;SDS011;9635;52.078;8.648;2024-03-29T07:44:53;3.25;;;1.50;;
19004;SDS011;9635;52.078;8.648;2024-03-29T07:49:54;3.83;;;1.42;;
19004;SDS011;9635;52.078;8.648;2024-03-29T07:54:55;6.70;;;1.50;;
19004;SDS011;9635;52.078;8.648;2024-03-29T07:59:56;4.25;;;1.30;;
19004;SDS011;9635;52.078;8.648;2024-03-29T08:04:57;4.55;;;0.90;;
19004;SDS011;9635;52.078;8.648;2024-03-29T08:09:58;4.20;;;1.00;;
19004;SDS011;9635;52.078;8.648;2024-03-29T08:14:59;2.13;;;0.75;;
19004;SDS011;9635;52.078;8.648;2024-03-29T08:20:00;1.77;;;0.90;;
19004;SDS011;9635;52.078;8.648;2024-03-29T08:25:01;2.55;;;0.90;;
19004;SDS011;9635;52.078;8.648;2024-03-29T08:30:02;2.45;;;0.77;;
19004;SDS011;9635;52.078;8.648;2024-03-29T08:35:03;1.52;;;0.80;;
19004;SDS011;9635;52.078;8.648;2024-03-29T08:40:04;2.53;;;0.90;;
19004;SDS011;9635;52.078;8.648;2024-03-29T08:45:05;2.67;;;0.80;;
19004;SDS011;9635;52.078;8.648;2024-03-29T08:50:08;3.10;;;1.00;;
19004;SDS011;9635;52.078;8.648;2024-03-29T08:55:09;5.40;;;0.95;;
19004;SDS011;9635;52.078;8.648;2024-03-29T09:00:10;1.42;;;0.70;;
19004;SDS011;9635;52.078;8.648;2024-03-29T09:05:11;2.72;;;0.90;;
19004;SDS011;9635;52.078;8.648;2024-03-29T09:10:13;1.00;;;0.80;;
19004;SDS011;9635;52.078;8.648;2024-03-29T09:15:14;2.72;;;0.50;;
19004;SDS011;9635;52.078;8.648;2024-03-29T09:20:16;2.95;;;0.70;;
19004;SDS011;9635;52.078;8.648;2024-03-29T09:25:17;1.58;;;0.98;;
19004;SDS011;9635;52.078;8.648;2024-03-29T09:30:18;2.15;;;0.70;;
19004;SDS011;9635;52.078;8.648;2024-03-29T09:35:20;2.40;;;0.88;;
19004;SDS011;9635;52.078;8.648;2024-03-29T09:40:21;1.02;;;0.80;;
19004;SDS011;9635;52.078;8.648;2024-03-29T09:45:24;2.85;;;0.73;;
19004;SDS011;9635;52.078;8.648;2024-03-29T09:50:24;2.10;;;0.90;;
19004;SDS011;9635;52.078;8.648;2024-03-29T09:55:25;2.65;;;0.88;;
19004;SDS011;9635;52.078;8.648;2024-03-29T10:00:28;1.23;;;0.88;;
19004;SDS011;9635;52.078;8.648;2024-03-29T10:05:29;1.98;;;0.98;;
19004;SDS011;9635;52.078;8.648;2024-03-29T10:10:34;0.70;;;0.70;;
19004;SDS011;9635;52.078;8.648;2024-03-29T10:15:35;1.80;;;0.75;;
19004;SDS011;9635;52.078;8.648;2024-03-29T10:20:39;1.70;;;0.80;;
19004;SDS011;9635;52.078;8.648;2024-03-29T10:25:42;0.70;;;0.70;;
19004;SDS011;9635;52.078;8.648;2024-03-29T10:30:43;2.00;;;0.90;;
19004;SDS011;9635;52.078;8.648;2024-03-29T10:35:44;1.05;;;0.60;;
19004;SDS011;9635;52.078;8.648;2024-03-29T10:40:45;2.25;;;0.90;;
19004;SDS011;9635;52.078;8.648;2024-03-29T10:45:47;0.95;;;0.55;;
19004;SDS011;9635;52.078;8.648;2024-03-29T10:50:48;0.70;;;0.70;;
19004;SDS011;9635;52.078;8.648;2024-03-29T10:55:53;1.02;;;0.82;;
19004;SDS011;9635;52.078;8.648;2024-03-29T11:00:57;1.85;;;0.70;;
19004;SDS011;9635;52.078;8.648;2024-03-29T11:11:05;1.13;;;0.70;;
19004;SDS011;9635;52.078;8.648;2024-03-29T11:16:07;1.85;;;0.65;;
19004;SDS011;9635;52.078;8.648;2024-03-29T11:21:08;1.25;;;0.60;;
19004;SDS011;9635;52.078;8.648;2024-03-29T11:31:13;0.95;;;0.50;;
19004;SDS011;9635;52.078;8.648;2024-03-29T11:36:16;0.85;;;0.60;;
19004;SDS011;9635;52.078;8.648;2024-03-29T11:41:25;1.25;;;0.80;;
19004;SDS011;9635;52.078;8.648;2024-03-29T11:46:27;1.40;;;1.00;;
19004;SDS011;9635;52.078;8.648;2024-03-29T11:51:33;2.13;;;0.80;;
19004;SDS011;9635;52.078;8.648;2024-03-29T11:56:34;0.70;;;0.60;;
19004;SDS011;9635;52.078;8.648;2024-03-29T12:01:35;0.40;;;0.40;;
19004;SDS011;9635;52.078;8.648;2024-03-29T12:06:39;1.42;;;0.80;;
19004;SDS011;9635;52.078;8.648;2024-03-29T12:11:43;1.08;;;0.80;;
19004;SDS011;9635;52.078;8.648;2024-03-29T12:16:46;0.82;;;0.28;;
19004;SDS011;9635;52.078;8.648;2024-03-29T12:21:46;0.77;;;0.50;;
19004;SDS011;9635;52.078;8.648;2024-03-29T12:26:48;0.32;;;0.32;;
19004;SDS011;9635;52.078;8.648;2024-03-29T12:31:59;0.60;;;0.50;;
19004;SDS011;9635;52.078;8.648;2024-03-29T12:37:01;2.08;;;0.40;;
19004;SDS011;9635;52.078;8.648;2024-03-29T12:42:02;0.52;;;0.52;;
19004;SDS011;9635;52.078;8.648;2024-03-29T12:47:03;0.65;;;0.50;;
19004;SDS011;9635;52.078;8.648;2024-03-29T12:52:05;1.77;;;0.50;;
19004;SDS011;9635;52.078;8.648;2024-03-29T12:57:06;1.48;;;0.60;;
19004;SDS011;9635;52.078;8.648;2024-03-29T13:02:06;0.52;;;0.50;;
19004;SDS011;9635;52.078;8.648;2024-03-29T13:07:07;0.63;;;0.50;;
19004;SDS011;9635;52.078;8.648;2024-03-29T13:12:08;0.93;;;0.77;;
19004;SDS011;9635;52.078;8.648;2024-03-29T13:17:09;0.40;;;0.40;;
19004;SDS011;9635;52.078;8.648;2024-03-29T13:22:09;2.08;;;0.70;;
19004;SDS011;9635;52.078;8.648;2024-03-29T13:27:10;1.08;;;0.50;;
19004;SDS011;9635;52.078;8.648;2024-03-29T13:32:13;0.95;;;0.43;;
19004;SDS011;9635;52.078;8.648;2024-03-29T13:37:13;1.23;;;0.70;;
19004;SDS011;9635;52.078;8.648;2024-03-29T13:42:14;0.85;;;0.47;;
19004;SDS011;9635;52.078;8.648;2024-03-29T13:47:15;0.80;;;0.43;;
19004;SDS011;9635;52.078;8.648;2024-03-29T13:52:16;0.88;;;0.40;;
19004;SDS011;9635;52.078;8.648;2024-03-29T13:57:17;1.48;;;1.17;;
19004;SDS011;9635;52.078;8.648;2024-03-29T14:02:18;0.82;;;0.40;;
19004;SDS011;9635;52.078;8.648;2024-03-29T14:07:19;0.87;;;0.50;;
19004;SDS011;9635;52.078;8.648;2024-03-29T14:12:21;2.45;;;0.70;;
19004;SDS011;9635;52.078;8.648;2024-03-29T14:17:22;1.05;;;0.55;;
19004;SDS011;9635;52.078;8.648;2024-03-29T14:22:22;1.17;;;0.43;;
19004;SDS011;9635;52.078;8.648;2024-03-29T14:27:24;0.47;;;0.30;;
19004;SDS011;9635;52.078;8.648;2024-03-29T14:32:25;0.90;;;0.50;;
19004;SDS011;9635;52.078;8.648;2024-03-29T14:37:25;2.10;;;0.60;;
19004;SDS011;9635;52.078;8.648;2024-03-29T14:42:27;0.32;;;0.28;;
19004;SDS011;9635;52.078;8.648;2024-03-29T14:47:27;2.30;;;0.60;;
19004;SDS011;9635;52.078;8.648;2024-03-29T14:52:28;0.57;;;0.40;;
19004;SDS011;9635;52.078;8.648;2024-03-29T14:57:29;0.35;;;0.35;;
19004;SDS011;9635;52.078;8.648;2024-03-29T15:02:30;1.05;;;0.50;;
19004;SDS011;9635;52.078;8.648;2024-03-29T15:07:31;1.05;;;0.43;;
19004;SDS011;9635;52.078;8.648;2024-03-29T15:12:33;0.45;;;0.38;;
19004;SDS011;9635;52.078;8.648;2024-03-29T15:17:33;0.77;;;0.38;;
19004;SDS011;9635;52.078;8.648;2024-03-29T15:22:35;1.13;;;0.38;;
19004;SDS011;9635;52.078;8.648;2024-03-29T15:27:37;0.40;;;0.30;;
19004;SDS011;9635;52.078;8.648;2024-03-29T15:32:56;0.45;;;0.45;;
19004;SDS011;9635;52.078;8.648;2024-03-29T15:37:57;0.80;;;0.57;;
19004;SDS011;9635;52.078;8.648;2024-03-29T15:42:58;1.08;;;0.50;;
19004;SDS011;9635;52.078;8.648;2024-03-29T15:47:59;1.00;;;0.25;;
19004;SDS011;9635;52.078;8.648;2024-03-29T15:52:59;0.57;;;0.50;;
19004;SDS011;9635;52.078;8.648;2024-03-29T15:58:00;0.32;;;0.25;;
19004;SDS011;9635;52.078;8.648;2024-03-29T16:03:01;0.90;;;0.45;;
19004;SDS011;9635;52.078;8.648;2024-03-29T16:08:04;0.57;;;0.20;;
19004;SDS011;9635;52.078;8.648;2024-03-29T16:13:05;0.45;;;0.30;;
19004;SDS011;9635;52.078;8.648;2024-03-29T16:18:06;0.70;;;0.40;;
19004;SDS011;9635;52.078;8.648;2024-03-29T16:23:06;1.35;;;0.40;;
19004;SDS011;9635;52.078;8.648;2024-03-29T16:28:07;0.93;;;0.40;;
19004;SDS011;9635;52.078;8.648;2024-03-29T16:33:11;2.05;;;0.50;;
19004;SDS011;9635;52.078;8.648;2024-03-29T16:38:12;1.15;;;0.40;;
19004;SDS011;9635;52.078;8.648;2024-03-29T16:43:13;1.25;;;0.70;;
19004;SDS011;9635;52.078;8.648;2024-03-29T16:48:13;0.80;;;0.63;;
19004;SDS011;9635;52.078;8.648;2024-03-29T16:53:14;0.60;;;0.40;;
19004;SDS011;9635;52.078;8.648;2024-03-29T16:58:15;1.63;;;0.40;;
19004;SDS011;9635;52.078;8.648;2024-03-29T17:03:16;0.73;;;0.60;;
19004;SDS011;9635;52.078;8.648;2024-03-29T17:08:16;0.80;;;0.57;;
19004;SDS011;9635;52.078;8.648;2024-03-29T17:13:17;0.90;;;0.70;;
19004;SDS011;9635;52.078;8.648;2024-03-29T17:18:18;0.95;;;0.60;;
19004;SDS011;9635;52.078;8.648;2024-03-29T17:23:19;0.90;;;0.65;;
19004;SDS011;9635;52.078;8.648;2024-03-29T17:28:20;1.60;;;0.60;;
19004;SDS011;9635;52.078;8.648;2024-03-29T17:33:21;2.90;;;0.95;;
19004;SDS011;9635;52.078;8.648;2024-03-29T17:38:21;1.38;;;1.27;;
19004;SDS011;9635;52.078;8.648;2024-03-29T17:43:22;0.95;;;0.80;;
19004;SDS011;9635;52.078;8.648;2024-03-29T17:48:23;1.40;;;1.08;;
19004;SDS011;9635;52.078;8.648;2024-03-29T17:53:24;2.00;;;0.63;;
19004;SDS011;9635;52.078;8.648;2024-03-29T17:58:24;1.40;;;0.75;;
19004;SDS011;9635;52.078;8.648;2024-03-29T18:03:25;0.85;;;0.77;;
19004;SDS011;9635;52.078;8.648;2024-03-29T18:08:26;0.90;;;0.70;;
19004;SDS011;9635;52.078;8.648;2024-03-29T18:13:27;0.70;;;0.70;;
19004;SDS011;9635;52.078;8.648;2024-03-29T18:18:32;1.98;;;0.90;;
19004;SDS011;9635;52.078;8.648;2024-03-29T18:23:33;0.70;;;0.65;;
19004;SDS011;9635;52.078;8.648;2024-03-29T18:28:37;0.98;;;0.90;;
19004;SDS011;9635;52.078;8.648;2024-03-29T18:33:38;3.05;;;1.08;;
19004;SDS011;9635;52.078;8.648;2024-03-29T18:38:39;1.38;;;1.00;;
19004;SDS011;9635;52.078;8.648;2024-03-29T18:48:42;1.25;;;1.02;;
19004;SDS011;9635;52.078;8.648;2024-03-29T18:53:43;2.63;;;1.40;;
19004;SDS011;9635;52.078;8.648;2024-03-29T18:58:44;2.53;;;1.30;;
19004;SDS011;9635;52.078;8.648;2024-03-29T19:03:45;2.45;;;1.60;;
19004;SDS011;9635;52.078;8.648;2024-03-29T19:13:49;4.47;;;3.30;;
19004;SDS011;9635;52.078;8.648;2024-03-29T19:18:50;5.88;;;2.65;;
19004;SDS011;9635;52.078;8.648;2024-03-29T19:23:51;2.65;;;2.20;;
19004;SDS011;9635;52.078;8.648;2024-03-29T19:28:52;2.85;;;2.00;;
19004;SDS011;9635;52.078;8.648;2024-03-29T19:33:53;1.45;;;1.35;;
19004;SDS011;9635;52.078;8.648;2024-03-29T19:38:53;2.17;;;1.23;;
19004;SDS011;9635;52.078;8.648;2024-03-29T19:43:54;1.58;;;1.35;;
19004;SDS011;9635;52.078;8.648;2024-03-29T19:48:55;1.00;;;0.90;;
19004;SDS011;9635;52.078;8.648;2024-03-29T19:53:56;1.15;;;1.05;;
19004;SDS011;9635;52.078;8.648;2024-03-29T19:58:57;1.25;;;1.15;;
19004;SDS011;9635;52.078;8.648;2024-03-29T20:03:57;4.65;;;1.40;;
19004;SDS011;9635;52.078;8.648;2024-03-29T20:08:58;2.83;;;1.33;;
19004;SDS011;9635;52.078;8.648;2024-03-29T20:13:59;1.13;;;1.02;;
19004;SDS011;9635;52.078;8.648;2024-03-29T20:19:00;2.45;;;1.10;;
19004;SDS011;9635;52.078;8.648;2024-03-29T20:24:06;1.17;;;1.08;;
19004;SDS011;9635;52.078;8.648;2024-03-29T20:29:07;7.28;;;4.25;;
19004;SDS011;9635;52.078;8.648;2024-03-29T20:34:07;3.90;;;3.20;;
19004;SDS011;9635;52.078;8.648;2024-03-29T20:39:08;5.18;;;3.80;;
19004;SDS011;9635;52.078;8.648;2024-03-29T20:44:09;5.63;;;3.85;;
19004;SDS011;9635;52.078;8.648;2024-03-29T20:49:10;3.65;;;3.10;;
19004;SDS011;9635;52.078;8.648;2024-03-29T20:54:11;3.47;;;2.22;;
19004;SDS011;9635;52.078;8.648;2024-03-29T20:59:12;2.97;;;1.85;;
19004;SDS011;9635;52.078;8.648;2024-03-29T21:04:13;2.78;;;1.95;;
19004;SDS011;9635;52.078;8.648;2024-03-29T21:09:32;3.17;;;2.05;;
19004;SDS011;9635;52.078;8.648;2024-03-29T21:14:33;1.40;;;1.30;;
19004;SDS011;9635;52.078;8.648;2024-03-29T21:19:34;1.50;;;1.38;;
19004;SDS011;9635;52.078;8.648;2024-03-29T21:24:35;3.47;;;2.20;;
19004;SDS011;9635;52.078;8.648;2024-03-29T21:29:36;1.50;;;1.30;;
19004;SDS011;9635;52.078;8.648;2024-03-29T21:34:37;1.30;;;1.20;;
19004;SDS011;9635;52.078;8.648;2024-03-29T21:39:38;1.67;;;1.42;;
19004;SDS011;9635;52.078;8.648;2024-03-29T21:44:39;1.70;;;1.40;;
19004;SDS011;9635;52.078;8.648;2024-03-29T21:49:41;2.25;;;1.40;;
19004;SDS011;9635;52.078;8.648;2024-03-29T21:54:42;1.40;;;1.30;;
19004;SDS011;9635;52.078;8.648;2024-03-29T21:59:44;2.03;;;1.83;;
19004;SDS011;9635;52.078;8.648;2024-03-29T22:04:45;1.92;;;1.83;;
19004;SDS011;9635;52.078;8.648;2024-03-29T22:09:45;1.77;;;1.67;;
19004;SDS011;9635;52.078;8.648;2024-03-29T22:14:46;2.55;;;1.70;;
19004;SDS011;9635;52.078;8.648;2024-03-29T22:19:47;2.80;;;2.47;;
19004;SDS011;9635;52.078;8.648;2024-03-29T22:24:47;8.00;;;5.22;;
19004;SDS011;9635;52.078;8.648;2024-03-29T22:29:48;7.57;;;5.47;;
19004;SDS011;9635;52.078;8.648;2024-03-29T22:34:49;4.15;;;3.75;;
19004;SDS011;9635;52.078;8.648;2024-03-29T22:39:51;4.07;;;3.78;;
19004;SDS011;9635;52.078;8.648;2024-03-29T22:44:52;5.85;;;4.57;;
19004;SDS011;9635;52.078;8.648;2024-03-29T22:49:53;4.70;;;4.30;;
19004;SDS011;9635;52.078;8.648;2024-03-29T22:54:54;6.95;;;4.68;;
19004;SDS011;9635;52.078;8.648;2024-03-29T22:59:55;5.25;;;4.75;;
19004;SDS011;9635;52.078;8.648;2024-03-29T23:04:55;5.90;;;4.55;;
19004;SDS011;9635;52.078;8.648;2024-03-29T23:09:56;5.93;;;5.00;;
19004;SDS011;9635;52.078;8.648;2024-03-29T23:14:58;5.20;;;4.75;;
19004;SDS011;9635;52.078;8.648;2024-03-29T23:19:59;7.30;;;5.18;;
19004;SDS011;9635;52.078;8.648;2024-03-29T23:25:00;8.00;;;5.05;;
19004;SDS011;9635;52.078;8.648;2024-03-29T23:30:05;5.00;;;4.60;;
19004;SDS011;9635;52.078;8.648;2024-03-29T23:35:07;7.20;;;5.97;;
19004;SDS011;9635;52.078;8.648;2024-03-29T23:40:08;6.63;;;6.03;;
19004;SDS011;9635;52.078;8.648;2024-03-29T23:45:09;6.68;;;5.85;;
19004;SDS011;9635;52.078;8.648;2024-03-29T23:50:09;6.40;;;5.65;;
19004;SDS011;9635;52.078;8.648;2024-03-29T23:55:10;7.95;;;6.60;;
